Latest Coastal Weather Observations for Hobart

IDT60701

Issued at 3:22 am EDT Saturday 19 October 2019 (issued every 10 minutes, with the page automatically refreshed every 10 minutes)

About coastal observations | Map of coastal stations | Coastal observations for TAS | Marine services | Other Formats
Station Details ID: 094029 Name: HOBART (ELLERSLIE ROAD) Lat: -42.89 Lon: 147.33 Height: 50.5 m
Data from the previous 72 hours. | See also: Recent months at Hobart
Date/Time
EDT
Wind Sea
Height
m
Swell Vis
km
Cloud Weather Temp
°C
Press
hPa
Rain since
9am
mm
Dir  Spd
kts
Gust
kts
Height
m
Period
s
Dir
19/03:00am NNW 12 17 - - - - - - - 6.5 1002.1 1.2
19/02:30am N 13 19 - - - - - - - 6.6 1002.3 1.2
19/02:00am N 12 17 - - - - - - - 7.0 1002.3 1.2
19/01:30am N 9 13 - - - - - - - 6.8 1002.5 1.2
19/01:00am NNW 11 16 - - - - - - - 6.7 1002.3 1.2
19/12:30am NW 11 17 - - - - - - - 7.2 1002.4 1.2
19/12:00am NNW 11 20 - - - - - - Recent precip. 7.0 1002.3 1.2
 
Date/Time
EDT
Wind Sea
Height
m
Swell Vis
km
Cloud Weather Temp
°C
Press
hPa
Rain since
9am
mm
Dir  Spd
kts
Gust
kts
Height
m
Period
s
Dir
18/11:30pm NW 13 18 - - - - - - - 6.8 1002.2 1.0
18/11:00pm NW 14 20 - - - - - - - 7.4 1002.2 1.0
18/10:30pm NNW 15 22 - - - - - - - 8.0 1001.6 1.0
18/10:00pm NW 15 28 - - - - - - - 8.1 1001.6 1.0
18/09:30pm NW 15 25 - - - - - - - 8.2 1001.5 1.0
18/09:28pm NNW 15 25 - - - - - - - 8.2 1001.4 1.0
18/09:00pm NW 16 23 - - - - - - - 8.6 1001.3 1.0
18/08:30pm NW 18 31 - - - - - - - 9.0 1000.4 1.0
18/08:08pm WNW 15 33 - - - - - - - 9.3 999.7 1.0
18/08:00pm NW 13 19 - - - - - - - 9.1 1000.0 1.0
18/07:30pm NW 10 15 - - - - - - - 9.8 999.1 0.6
18/07:00pm NW 15 23 - - - - - - - 10.7 998.7 0.6
18/06:37pm NW 17 27 - - - - - - - 11.7 998.2 0.6
18/06:30pm NNW 13 26 - - - - - - - 11.9 998.1 0.6
18/06:00pm NW 16 27 - - - - - - Recent precip. 12.0 998.0 0.6
18/05:40pm NW 15 26 - - - - - - - 12.6 998.0 0.6
18/05:30pm NW 11 20 - - - - - - - 13.1 997.9 0.6
18/05:00pm WNW 13 19 - - - - - - - 12.3 998.1 0.4
18/04:39pm WNW 15 28 - - - - - - - 13.2 997.6 0.0
18/04:30pm WNW 12 23 - - - - - - - 14.3 997.5 0.0
18/04:00pm WNW 19 32 - - - - - - - 15.0 996.6 0.0
18/03:34pm NW 15 27 - - - - - - - 16.7 996.3 0.0
18/03:30pm NW 13 25 - - - - - - - 16.9 996.3 0.0
18/03:15pm NNW 18 28 - - - - - - - 16.7 996.4 0.0
18/03:00pm NW 15 24 - - - - - - - 17.5 996.6 0.0
18/02:30pm NNW 17 29 - - - - - - - 19.2 996.8 0.0
18/02:00pm NW 20 31 - - - - - - - 17.8 997.5 0.0
18/01:30pm NW 18 29 - - - - - - - 18.5 998.2 0.0
18/01:00pm NW 16 30 - - - - - - - 18.8 999.0 0.0
18/12:30pm NW 18 35 - - - - - - - 17.8 999.8 0.0
18/12:00pm NNW 18 28 - - - - - - - 16.1 1001.1 0.0
18/11:39am NNW 17 27 - - - - - - - 15.9 1001.6 0.0
18/11:30am NNW 17 26 - - - - - - - 16.0 1001.8 0.0
18/11:00am NNW 17 27 - - - - - - - 16.7 1002.2 0.0
18/10:44am NNW 16 27 - - - - - - - 16.1 1002.5 0.0
18/10:30am NNW 18 27 - - - - - - - 15.4 1002.7 0.0
18/10:22am NNW 15 27 - - - - - - - 15.2 1002.8 0.0
18/10:00am NNW 14 22 - - - - - - - 15.2 1003.5 0.0
18/09:30am NW 16 29 - - - - - - - 14.5 1004.1 0.0
18/09:28am NW 15 29 - - - - - - - 14.3 1004.1 0.0
18/09:00am NNW 15 23 - - - - - - - 13.7 1004.4 0.0
18/08:30am NNW 14 25 - - - - - - - 12.5 1004.9 0.0
18/08:22am NNW 15 25 - - - - - - - 12.2 1005.1 0.0
18/08:00am NW 14 20 - - - - - - - 11.6 1005.3 0.0
18/07:30am NNW 8 16 - - - - - - - 10.6 1005.7 0.0
18/07:00am N 5 8 - - - - - - - 8.6 1005.9 0.0
18/06:30am NW 4 5 - - - - - - - 7.1 1006.1 0.0
18/06:00am N 2 4 - - - - - - - 7.5 1006.1 0.0
18/05:30am NNW 4 7 - - - - - - - 7.5 1006.2 0.0
18/05:00am NNW 6 8 - - - - - - - 8.0 1006.3 0.0
18/04:30am NW 6 8 - - - - - - - 8.2 1006.7 0.0
18/04:00am NNW 9 14 - - - - - - - 8.8 1006.6 0.0
18/03:30am NNW 12 17 - - - - - - - 9.4 1007.0 0.0
18/03:00am N 9 16 - - - - - - - 9.2 1007.5 0.0
18/02:30am NNW 11 15 - - - - - - - 9.4 1007.5 0.0
18/02:00am NNW 9 13 - - - - - - - 8.7 1007.8 0.0
18/01:30am NNW 11 15 - - - - - - - 9.2 1008.4 0.0
18/01:00am WNW 7 11 - - - - - - - 8.5 1008.6 0.0
18/12:30am N 4 6 - - - - - - - 9.2 1008.6 0.0
18/12:00am NW 8 12 - - - - - - - 9.6 1008.7 0.0
 
Date/Time
EDT
Wind Sea
Height
m
Swell Vis
km
Cloud Weather Temp
°C
Press
hPa
Rain since
9am
mm
Dir  Spd
kts
Gust
kts
Height
m
Period
s
Dir
17/11:30pm WNW 4 5 - - - - - - - 8.9 1008.7 0.0
17/11:00pm NW 4 6 - - - - - - - 9.0 1008.8 0.0
17/10:30pm WNW 3 6 - - - - - - - 9.4 1008.8 0.0
17/10:00pm W 7 9 - - - - - - - 9.8 1008.9 0.0
17/09:30pm WSW 7 9 - - - - - - - 9.9 1008.8 0.0
17/09:00pm WSW 7 9 - - - - - - - 10.2 1008.5 0.0
17/08:30pm WSW 6 7 - - - - - - - 10.5 1008.3 0.0
17/08:00pm SW 5 7 - - - - - - - 11.0 1007.9 0.0
17/07:30pm SSW 6 9 - - - - - - - 11.8 1007.5 0.0
17/07:00pm SSW 6 9 - - - - - - - 12.3 1007.1 0.0
17/06:30pm S 8 11 - - - - - - - 13.0 1006.7 0.0
17/06:00pm SSE 10 14 - - - - - - - 13.5 1006.4 0.0
17/05:30pm SE 11 15 - - - - - - - 13.6 1006.2 0.0
17/05:00pm SE 12 16 - - - - - - - 13.7 1006.0 0.0
17/04:30pm SE 13 17 - - - - - - - 13.2 1005.9 0.0
17/04:00pm SE 14 19 - - - - - - - 13.6 1005.7 0.0
17/03:30pm SSE 12 18 - - - - - - - 14.5 1005.6 0.0
17/03:00pm ESE 13 17 - - - - - - - 14.5 1005.7 0.0
17/02:30pm ESE 13 19 - - - - - - - 14.3 1006.0 0.0
17/02:00pm ESE 11 15 - - - - - - - 15.0 1005.9 0.0
17/01:30pm ESE 11 15 - - - - - - - 14.6 1006.0 0.0
17/01:00pm ESE 8 12 - - - - - - - 15.3 1006.2 0.0
17/12:30pm ESE 8 12 - - - - - - - 14.4 1006.4 0.0
17/12:00pm ESE 9 13 - - - - - - - 14.1 1006.5 0.0
17/11:30am ESE 9 11 - - - - - - - 13.7 1006.6 0.0
17/11:00am SE 7 10 - - - - - - - 13.7 1006.7 0.0
17/10:30am E 6 10 - - - - - - - 12.6 1006.9 0.0
17/10:00am NE 5 8 - - - - - - - 12.3 1007.0 0.0
17/09:30am NNE 4 6 - - - - - - - 11.1 1007.0 0.0
17/09:00am N 6 8 - - - - - - - 9.7 1006.9 0.0
17/08:30am N 5 7 - - - - - - - 8.2 1007.0 0.0
17/08:00am NNW 6 8 - - - - - - - 5.8 1007.1 0.0
17/07:30am NNW 7 9 - - - - - - - 5.0 1006.9 0.0
17/07:00am NW 3 6 - - - - - - - 4.8 1006.6 0.0
17/06:30am NW 5 6 - - - - - - - 4.7 1006.6 0.0
17/06:00am NW 3 5 - - - - - - - 4.7 1006.4 0.0
17/05:30am NW 4 5 - - - - - - - 5.0 1006.4 0.0
17/05:00am WNW 2 7 - - - - - - - 5.1 1006.4 0.0
17/04:30am NW 3 6 - - - - - - - 5.3 1006.6 0.0
17/04:00am W 4 5 - - - - - - - 5.6 1007.0 0.0
17/03:30am NW 3 5 - - - - - - - 6.1 1007.3 0.0
17/03:00am W 3 4 - - - - - - - 6.3 1007.4 0.0
17/02:30am WNW 4 7 - - - - - - - 6.0 1007.5 0.0
17/02:00am NNW 3 7 - - - - - - - 6.4 1007.7 0.0
17/01:30am W 5 7 - - - - - - - 6.7 1007.9 0.0
17/01:00am W 7 8 - - - - - - - 6.7 1008.1 0.0
17/12:30am W 4 5 - - - - - - - 6.9 1008.3 0.0
17/12:00am W 4 5 - - - - - - - 7.4 1008.4 0.0
 
Date/Time
EDT
Wind Sea
Height
m
Swell Vis
km
Cloud Weather Temp
°C
Press
hPa
Rain since
9am
mm
Dir  Spd
kts
Gust
kts
Height
m
Period
s
Dir
16/11:30pm W 1 5 - - - - - - - 8.3 1008.4 0.0
16/11:00pm WSW 1 4 - - - - - - - 9.0 1008.5 0.0
16/10:30pm SW 7 12 - - - - - - - 9.7 1008.5 0.0
16/10:00pm SW 11 17 - - - - - - - 9.4 1008.5 0.0
16/09:30pm SSW 10 14 - - - - - - - 8.9 1008.6 0.0
16/09:00pm SSW 11 16 - - - - - - - 9.5 1008.5 0.0
16/08:30pm SSW 9 15 - - - - - - - 10.4 1008.5 0.0
16/08:00pm SSW 8 12 - - - - - - - 11.0 1008.3 0.0
16/07:30pm SSE 6 9 - - - - - - - 11.0 1007.9 0.0
16/07:00pm S 5 8 - - - - - - - 11.9 1007.7 0.0
16/06:30pm SW 8 13 - - - - - - - 12.3 1007.4 0.0
16/06:00pm SSW 6 8 - - - - - - - 12.7 1007.5 0.0
16/05:30pm ESE 7 10 - - - - - - - 13.2 1007.3 0.0
16/05:00pm SE 5 7 - - - - - - - 13.7 1007.3 0.0
16/04:30pm SE 6 9 - - - - - - - 13.8 1007.2 0.0
16/04:00pm ENE 9 13 - - - - - - - 14.0 1007.3 0.0
16/03:30pm ESE 10 14 - - - - - - - 14.1 1007.5 0.0
16/03:00pm SE 12 17 - - - - - - - 13.9 1007.7 0.0
16/02:30pm NNE 9 15 - - - - - - - 16.1 1007.6 0.0
16/02:00pm N 12 18 - - - - - - - 17.1 1007.9 0.0
16/01:30pm N 12 19 - - - - - - - 16.5 1008.4 0.0
16/01:00pm N 11 17 - - - - - - - 15.7 1008.7 0.0
16/12:30pm NW 10 14 - - - - - - - 15.9 1009.1 0.0
16/12:00pm NNW 7 13 - - - - - - - 15.1 1009.7 0.0
16/11:30am NNW 11 17 - - - - - - - 14.7 1010.3 0.0
16/11:00am NNW 10 15 - - - - - - - 13.8 1010.8 0.0
16/10:30am NNW 10 13 - - - - - - - 12.3 1011.2 0.0
16/10:00am NNW 11 15 - - - - - - - 10.4 1011.6 0.0
16/09:30am N 9 13 - - - - - - - 9.3 1011.9 0.0
16/09:00am NNW 8 11 - - - - - - - 7.5 1012.0 7.0
16/08:30am N 9 14 - - - - - - - 5.8 1012.2 7.0
16/08:00am NNW 9 12 - - - - - - - 5.4 1012.2 7.0
16/07:30am NW 11 15 - - - - - - - 5.0 1012.3 7.0
16/07:00am NW 9 13 - - - - - - - 4.9 1012.2 7.0
16/06:30am NW 10 14 - - - - - - - 4.6 1012.2 7.0
16/06:00am NNW 11 14 - - - - - - Recent precip. 4.5 1012.0 7.0
16/05:30am NNW 9 13 - - - - - - - 4.6 1011.8 7.0
16/05:00am NNW 8 12 - - - - - - - 4.5 1011.9 6.8
16/04:30am N 8 11 - - - - - - - 5.0 1011.8 6.8
16/04:00am NNW 9 11 - - - - - - - 5.1 1011.9 6.8
16/03:30am NW 6 10 - - - - - - - 5.0 1012.0 6.8

Other formats

Comma delimited format used in spreadsheet applications
http://www.bom.gov.au/fwo/IDT60701/IDT60701.94970.axf

JavaScript Object Notation format (JSON) in row-major order
http://www.bom.gov.au/fwo/IDT60701/IDT60701.94970.json

Data quality

Most of these data are generated automatically and are frequently updated. Quality checks on data are not normally performed. It is possible for incorrect values to appear. Refer to information at About Latest Weather Observations and please check the disclaimer before using these data.